Arlington, TX (76001)

4:18 AM CDT on August 25, 2016 (GMT -0500)
Turner Way - KF5WJB | | Change Station

Elev 682 ft 32.62 °N, 97.15 °W | Updated 43 seconds ago

Clear
Clear
76.1 °F
Feels Like 76 °F
N
3.4
Wind Variable Wind from South
Gusts 6.0 mph

Today
High -- | Low -- °F
--% Chance of Precip.
Yesterday
High -- | Low -- °F
Precip. -- in
Pressure 30.01 in
Visibility 10.0 miles
Clouds Clear
Heat Index 76 °F
Dew Point 74 °F
Humidity 93%
Rainfall 0.00 in
Snow Depth Not available.
6:59 AM 8:01 PM
Waning Gibbous, 47% visible
METAR KGKY 250853Z AUTO 16007KT 10SM CLR 25/22 A3004 RMK AO2 SLP163 T02500222 56004 $
Pressure 30.01 in
Visibility 10.0 miles
Clouds Clear
Heat Index 76 °F
Dew Point 74 °F
Humidity 93%
Rainfall 0.00 in
Snow Depth Not available.
6:59 AM 8:01 PM
Waning Gibbous, 47% visible
METAR KGKY 250853Z AUTO 16007KT 10SM CLR 25/22 A3004 RMK AO2 SLP163 T02500222 56004 $

10-Day Weather Forecast

Almanac

Astronomy

Aug. 25, 2016 Rise Set
Actual Time
Civil Twilight
Nautical Twilight
Astronomical Twilight
Moon
Length of Visible Light
Length of Day
Tomorrow will be .
, % of the Moon is Illuminated

Today's Extremes

State Highs State Lows

Community

WunderPhotos

Upload Photos

1,934,814 photos uploaded!

WunderBlog® & News

Nearby

Air Quality

  Air Quality AQ Index Pollutant
Not available.

Snow Depth

Station Depth Elevation

Earthquake Activity

City Distance Mag. Time & Date
Minimum magnitude displayed is 2.5.

Coastal Water Temperatures

Place Temperature

Stations

Nearby Weather Stations

Station Location Temp. Windchill Dew Point Humidity Wind Precip. Elev Updated Type
                   

Watches & Warnings

There are currently no watches in effect.